Terminal Aerodrome Forecast
Issued by NWS

Home | Current Version | Previous Version | Text Only | Print | Product List | Glossary On
Versions: 1 2 3 4 5 6 7 8 9 10 11 12 13
000
FTUS44 KLZK 300500
TAFBPK
TAF
KBPK 300540Z 3006/3106 33003KT P6SM SKC
     FM301500 05004KT P6SM SCT250
     FM310000 11004KT P6SM BKN250=

USA.gov is the U.S. government's official web portal to all federal, state and local government web resources and services.